Terminal Aerodrome Forecast
Issued by NWS Charleston, WV

Current Version | Previous Version | Graphics & Text | Print | Product List | Glossary On
Versions: 1 2 3 4 5 6 7 8 9 10 11 12 13 14 15 16 17 18 19 20 21 22 23 24 25
000
FTUS41 KRLX 010600 AAA
TAFPKB
TAF AMD
KPKB 010642Z 0107/0206 00000KT 1/2SM FG VV001
      TEMPO 0107/0109 2SM BR BKN001
     FM010900 00000KT 1/4SM FG OVC001
     FM011200 00000KT 3SM BR SCT250
     FM011300 00000KT P6SM BKN250
     FM011800 14004KT P6SM VCTS BKN060CB
     FM012100 12004KT P6SM BKN090=

USA.gov is the U.S. government's official web portal to all federal, state and local government web resources and services.